Terminal Aerodrome Forecast
Issued by NWS

Home | Current Version | Previous Version | Text Only | Print | Product List | Glossary On
Versions: 1 2 3 4 5 6 7 8 9 10 11 12 13 14 15 16 17
000
FTUS43 KGRR 262340
TAFJXN
TAF
KJXN 262340Z 2700/2724 27010KT P6SM BKN070
     FM270500 25008KT P6SM VCSH BKN050
     FM271400 25016G26KT P6SM VCSH OVC035=

USA.gov is the U.S. government's official web portal to all federal, state and local government web resources and services.